Aviation Digital Data Service (ADDS)

Output produced by METARs form (1713 UTC 26 April 2018)
found at http://aviationweather.gov/adds/metars/
 
KHKS 261653Z 26010KT 10SM SCT016 OVC026 14/11 A2994 RMK AO2 SLP132 T01390111